Time;durP1;ratioP1;P1;durP2;ratioP2;P2;SDS_P1;SDS_P2;PMS_P1;PMS_P2;Temp;Humidity;BMP_temperature;BMP_pressure;BME280_temperature;BME280_humidity;BME280_pressure;Samples;Min_cycle;Max_cycle;Signal;HPM_P1;HPM_P2
2022/05/27 00:01:26;;;;;;;;;1.00;1.00;;;;;17.00;55.45;101818.00;5048196;28;45850;-80
2022/05/27 00:03:52;;;;;;;;;1.50;1.50;;;;;17.00;55.23;101831.25;5046253;28;45787;-80
2022/05/27 00:06:18;;;;;;;;;1.00;1.00;;;;;16.96;55.65;101814.72;5039503;28;45787;-80
2022/05/27 00:08:44;;;;;;;;;2.25;1.00;;;;;16.89;55.46;101802.97;5033741;28;46463;-82
2022/05/27 00:11:09;;;;;;;;;1.00;1.00;;;;;16.99;55.76;101805.72;5030380;28;46029;-80
2022/05/27 00:13:36;;;;;;;;;0.00;0.00;;;;;16.98;55.07;101820.75;5031033;28;45761;-80
2022/05/27 00:16:02;;;;;;;;;1.00;0.00;;;;;16.91;55.43;101810.75;5051053;28;46599;-80
2022/05/27 00:18:27;;;;;;;;;1.00;1.00;;;;;16.91;55.78;101808.09;5043431;28;46070;-80
2022/05/27 00:20:52;;;;;;;;;1.00;1.00;;;;;16.90;55.70;101801.13;5035132;28;45581;-80
2022/05/27 00:23:19;;;;;;;;;1.00;1.00;;;;;16.87;55.86;101804.88;5051334;28;45777;-79
2022/05/27 00:25:44;;;;;;;;;2.00;2.00;;;;;16.84;56.27;101807.78;5051100;28;46433;-78
2022/05/27 00:28:09;;;;;;;;;1.00;1.00;;;;;16.87;56.05;101812.81;5051203;28;46135;-80
2022/05/27 00:30:35;;;;;;;;;1.00;1.00;;;;;16.87;56.20;101796.09;5050279;28;45605;-79
2022/05/27 00:33:01;;;;;;;;;1.00;1.00;;;;;16.77;56.41;101799.47;5050680;28;45703;-79
2022/05/27 00:35:27;;;;;;;;;0.75;0.50;;;;;16.76;56.23;101784.53;5051028;28;46400;-81
2022/05/27 00:37:53;;;;;;;;;0.00;0.00;;;;;16.83;56.53;101787.56;5049960;28;45816;-79
2022/05/27 00:40:19;;;;;;;;;1.50;1.00;;;;;16.83;56.38;101786.72;5050270;28;45863;-80
2022/05/27 00:42:46;;;;;;;;;2.00;1.00;;;;;16.75;56.37;101752.88;5047368;28;45688;-80
2022/05/27 00:45:21;;;;;;;;;0.50;0.00;;;;;16.85;56.83;101776.81;5037940;28;45617;-80
2022/05/27 00:47:50;;;;;;;;;1.00;1.00;;;;;16.77;56.44;101770.34;5049594;28;46342;-80
2022/05/27 00:50:19;;;;;;;;;1.00;0.50;;;;;16.77;56.68;101778.28;5050674;28;46038;-79
2022/05/27 00:52:47;;;;;;;;;3.00;2.25;;;;;16.73;56.75;101773.34;5049975;28;45886;-81
2022/05/27 00:55:17;;;;;;;;;1.50;1.00;;;;;16.66;57.35;101786.22;5042007;28;46027;-79
2022/05/27 00:57:53;;;;;;;;;1.00;1.00;;;;;16.53;57.07;101755.50;5043056;28;46027;-82
2022/05/27 01:00:21;;;;;;;;;2.00;1.00;;;;;16.65;57.21;101786.31;5046310;28;45783;-79
2022/05/27 01:02:48;;;;;;;;;1.00;1.00;;;;;16.63;57.37;101777.66;5041293;28;45956;-79
2022/05/27 01:05:17;;;;;;;;;2.25;1.25;;;;;16.62;57.76;101786.59;5043704;28;46794;-80
2022/05/27 01:07:43;;;;;;;;;1.00;1.00;;;;;16.51;57.56;101763.56;5040492;28;46178;-79
2022/05/27 01:10:12;;;;;;;;;2.00;2.00;;;;;16.55;57.77;101767.66;5044972;28;45705;-79
2022/05/27 01:12:50;;;;;;;;;1.25;1.00;;;;;16.56;57.95;101784.38;5050164;28;45625;-79
2022/05/27 01:15:46;;;;;;;;;1.75;1.00;;;;;16.40;57.89;101762.72;5033283;28;46648;-79
2022/05/27 01:20:18;;;;;;;;;1.00;1.00;;;;;16.46;58.12;101776.31;5044864;28;46496;-79
2022/05/27 01:21:20;;;;;;;;;1.00;1.00;;;;;16.35;58.44;101763.91;5035609;28;45805;-78
2022/05/27 01:24:25;;;;;;;;;0.00;0.00;;;;;16.33;58.42;101757.88;5034281;28;45879;-78
2022/05/27 01:26:57;;;;;;;;;0.75;0.75;;;;;16.38;58.75;101773.41;4998475;28;45958;-78
2022/05/27 01:29:56;;;;;;;;;1.50;1.00;;;;;16.38;58.54;101771.59;5045425;28;46060;-77
2022/05/27 01:32:44;;;;;;;;;2.00;1.75;;;;;16.40;58.64;101760.91;5034146;28;45756;-79
2022/05/27 01:35:21;;;;;;;;;1.00;1.00;;;;;16.40;58.66;101773.28;5039523;28;46067;-78
2022/05/27 01:38:25;;;;;;;;;2.25;1.25;;;;;16.39;58.62;101764.50;5046758;28;45741;-80
2022/05/27 01:41:03;;;;;;;;;1.50;1.00;;;;;16.36;58.37;101764.72;5036096;28;46361;-78
2022/05/27 01:43:49;;;;;;;;;2.00;1.00;;;;;16.35;58.76;101755.13;5053611;28;45733;-78
2022/05/27 01:46:22;;;;;;;;;2.00;0.75;;;;;16.38;58.51;101773.41;5053457;28;45726;-79
2022/05/27 01:49:02;;;;;;;;;1.25;1.00;;;;;16.36;58.76;101764.72;5052902;28;45904;-77
2022/05/27 01:51:33;;;;;;;;;1.50;1.50;;;;;16.36;58.60;101767.38;5053377;28;46516;-79
2022/05/27 01:54:06;;;;;;;;;2.00;1.00;;;;;16.29;58.81;101753.78;5048859;28;46050;-79
2022/05/27 01:56:39;;;;;;;;;1.25;1.00;;;;;16.31;58.72;101775.66;5037209;28;45801;-79
2022/05/27 01:59:11;;;;;;;;;3.00;1.00;;;;;16.27;58.77;101776.03;5047330;28;45876;-78
2022/05/27 02:01:42;;;;;;;;;1.00;1.00;;;;;16.22;58.80;101762.31;5041194;28;46128;-78
2022/05/27 02:04:19;;;;;;;;;1.75;1.75;;;;;16.25;58.63;101764.69;5053198;28;45758;-79
2022/05/27 02:07:07;;;;;;;;;1.00;1.00;;;;;16.23;58.58;101764.00;5049555;28;45833;-78
2022/05/27 02:09:42;;;;;;;;;1.75;1.75;;;;;16.13;58.56;101750.63;5046521;28;46967;-79
2022/05/27 02:12:14;;;;;;;;;2.00;1.00;;;;;16.19;58.66;101759.91;5025915;28;46147;-79
2022/05/27 02:14:49;;;;;;;;;2.25;2.00;;;;;16.13;58.71;101768.31;5032445;28;46712;-78
2022/05/27 02:17:19;;;;;;;;;2.00;2.00;;;;;16.14;58.94;101762.88;5033220;28;45836;-78
2022/05/27 02:19:51;;;;;;;;;2.50;2.00;;;;;16.11;58.87;101762.28;5021855;28;45874;-79
2022/05/27 02:22:28;;;;;;;;;0.50;0.50;;;;;16.02;58.77;101761.19;5029145;28;46611;-80
2022/05/27 02:24:59;;;;;;;;;2.75;1.75;;;;;16.06;59.10;101764.44;5032271;28;45773;-79
2022/05/27 02:27:34;;;;;;;;;3.00;2.00;;;;;15.98;59.11;101758.91;5033099;28;45659;-80
2022/05/27 02:30:04;;;;;;;;;2.00;1.00;;;;;15.93;59.24;101757.41;5031806;28;46460;-80
2022/05/27 02:32:38;;;;;;;;;2.00;1.25;;;;;15.97;59.35;101773.06;5028210;28;48184;-79
2022/05/27 02:35:30;;;;;;;;;2.00;2.00;;;;;16.01;59.70;101774.50;5020986;28;45767;-80
2022/05/27 02:37:59;;;;;;;;;2.00;1.00;;;;;16.01;59.35;101772.72;5024903;28;45686;-79
2022/05/27 02:40:34;;;;;;;;;4.00;2.00;;;;;15.98;59.29;101766.81;5032267;28;46713;-80
2022/05/27 02:43:05;;;;;;;;;1.00;1.00;;;;;15.97;59.43;101781.00;5031786;28;46055;-80
2022/05/27 02:45:42;;;;;;;;;3.00;1.50;;;;;15.89;59.45;101769.19;5032546;28;45621;-80
2022/05/27 02:48:36;;;;;;;;;1.00;1.00;;;;;15.88;59.76;101770.13;5021772;28;45822;-80
2022/05/27 02:51:37;;;;;;;;;1.25;1.00;;;;;15.87;60.06;101764.97;5031434;28;46709;-79
2022/05/27 02:54:21;;;;;;;;;2.25;2.00;;;;;15.86;60.27;101773.88;5032371;28;46263;-79
2022/05/27 02:56:54;;;;;;;;;2.00;2.00;;;;;15.83;60.14;101764.34;5033902;28;45713;-80
2022/05/27 02:59:20;;;;;;;;;2.00;2.00;;;;;15.83;60.24;101772.28;5032548;28;45725;-78
2022/05/27 03:01:47;;;;;;;;;2.50;2.00;;;;;15.76;60.16;101755.19;5031726;28;47094;-79
2022/05/27 03:04:14;;;;;;;;;3.00;2.00;;;;;15.83;60.80;101779.34;5025880;28;46308;-79
2022/05/27 03:07:16;;;;;;;;;4.00;1.25;;;;;15.83;60.48;101774.06;5031136;28;45870;-79
2022/05/27 03:09:44;;;;;;;;;2.00;2.00;;;;;15.84;60.46;101770.47;5023439;28;45738;-78
2022/05/27 03:12:28;;;;;;;;;3.25;2.00;;;;;15.81;60.46;101798.00;5025468;28;46780;-82
2022/05/27 03:15:10;;;;;;;;;2.50;2.50;;;;;15.76;60.48;101783.44;5018535;28;46281;-80
2022/05/27 03:18:12;;;;;;;;;2.75;1.00;;;;;15.71;60.62;101770.53;5032147;28;45664;-79
2022/05/27 03:20:48;;;;;;;;;2.75;2.00;;;;;15.71;60.44;101783.75;5020852;28;45673;-82
2022/05/27 03:23:42;;;;;;;;;2.25;2.25;;;;;15.62;60.35;101750.09;5031981;28;46706;-79
2022/05/27 03:26:35;;;;;;;;;2.00;2.00;;;;;15.65;60.19;101776.31;5031872;28;46292;-80
2022/05/27 03:29:20;;;;;;;;;3.25;3.00;;;;;15.56;60.24;101781.41;5031545;28;46018;-79
2022/05/27 03:31:54;;;;;;;;;4.25;2.75;;;;;15.55;60.46;101779.72;5031350;28;45801;-78
2022/05/27 03:34:30;;;;;;;;;2.25;2.00;;;;;15.49;60.54;101778.34;5026846;28;46442;-80
2022/05/27 03:37:04;;;;;;;;;3.00;2.50;;;;;15.48;60.77;101769.56;5031673;28;46295;-80
2022/05/27 03:39:38;;;;;;;;;2.00;2.00;;;;;15.42;60.88;101780.59;5030968;28;45819;-80
2022/05/27 03:42:08;;;;;;;;;2.50;2.00;;;;;15.44;60.86;101764.59;5031162;28;45869;-80
2022/05/27 03:44:34;;;;;;;;;3.00;3.00;;;;;15.45;60.71;101776.88;5031543;28;45899;-80
2022/05/27 03:47:01;;;;;;;;;2.50;2.00;;;;;15.35;60.82;101762.66;5013361;28;47443;-80
2022/05/27 03:49:27;;;;;;;;;4.00;2.25;;;;;15.33;60.64;101757.47;5030969;28;45833;-79
2022/05/27 03:52:03;;;;;;;;;3.25;2.00;;;;;15.30;60.83;101759.50;5029442;28;45738;-79
2022/05/27 03:54:28;;;;;;;;;3.25;3.00;;;;;15.39;60.67;101772.03;5018391;28;45836;-80
2022/05/27 03:56:54;;;;;;;;;2.25;2.25;;;;;15.41;61.18;101772.75;5031154;28;46391;-80
2022/05/27 03:59:20;;;;;;;;;4.00;3.75;;;;;15.40;61.00;101773.72;5031418;28;46252;-80
2022/05/27 04:01:49;;;;;;;;;3.75;3.00;;;;;15.43;61.20;101768.22;5030607;28;45879;-80
2022/05/27 04:04:18;;;;;;;;;4.00;2.00;;;;;15.44;61.20;101777.81;5031124;28;45622;-80
2022/05/27 04:06:43;;;;;;;;;3.00;2.00;;;;;15.41;61.13;101773.63;5031407;28;46129;-80
2022/05/27 04:09:08;;;;;;;;;5.75;3.00;;;;;15.36;61.28;101751.13;5030714;28;45852;-80
2022/05/27 04:11:35;;;;;;;;;3.00;3.00;;;;;15.41;61.26;101768.31;5013225;28;45639;-80
2022/05/27 04:14:01;;;;;;;;;2.00;2.00;;;;;15.45;61.12;101769.78;5031198;28;45825;-80
2022/05/27 04:16:26;;;;;;;;;2.00;2.00;;;;;15.37;61.26;101763.38;5030654;28;46269;-80
2022/05/27 04:18:52;;;;;;;;;2.00;2.00;;;;;15.49;61.40;101781.81;5027787;28;46025;-80
2022/05/27 04:21:18;;;;;;;;;1.25;1.25;;;;;15.53;61.33;101782.47;5030674;28;45727;-80
2022/05/27 04:23:44;;;;;;;;;1.75;1.75;;;;;15.46;61.39;101779.41;5030592;28;46449;-80
2022/05/27 04:26:09;;;;;;;;;3.50;2.00;;;;;15.45;61.52;101783.00;5029300;28;47095;-80
2022/05/27 04:28:35;;;;;;;;;2.00;1.50;;;;;15.41;61.58;101776.25;5030245;28;45728;-80
2022/05/27 04:31:02;;;;;;;;;1.00;1.00;;;;;15.48;61.53;101789.88;5029073;28;45852;-79
2022/05/27 04:33:28;;;;;;;;;2.25;2.25;;;;;15.46;61.62;101775.91;5026935;28;46044;-80
2022/05/27 04:35:56;;;;;;;;;2.75;2.25;;;;;15.50;61.72;101788.78;5030860;28;46134;-79
2022/05/27 04:38:22;;;;;;;;;2.25;2.25;;;;;15.52;61.42;101792.19;5030583;28;45717;-80
2022/05/27 04:40:48;;;;;;;;;2.25;2.00;;;;;15.46;61.60;101773.28;5030397;28;45797;-80
2022/05/27 04:43:14;;;;;;;;;2.75;2.00;;;;;15.46;61.43;101779.41;5022879;28;45745;-80
2022/05/27 04:45:40;;;;;;;;;3.75;2.00;;;;;15.44;61.83;101780.44;5028307;28;47115;-80
2022/05/27 04:48:06;;;;;;;;;3.00;3.00;;;;;15.44;61.54;101772.53;5025844;28;45659;-80
2022/05/27 04:50:32;;;;;;;;;3.00;3.00;;;;;15.46;61.71;101782.03;5011580;28;46174;-80
2022/05/27 04:52:57;;;;;;;;;4.50;4.25;;;;;15.36;61.82;101769.63;5030598;28;46600;-79
2022/05/27 04:55:23;;;;;;;;;5.75;4.00;;;;;15.34;61.87;101766.22;5030161;28;45897;-79
2022/05/27 04:57:52;;;;;;;;;6.75;4.00;;;;;15.37;61.95;101776.59;5031292;28;45689;-78
2022/05/27 05:00:19;;;;;;;;;3.25;2.50;;;;;15.39;62.09;101794.00;5002715;28;46005;-80
2022/05/27 05:02:44;;;;;;;;;3.50;3.50;;;;;15.34;62.25;101790.00;5023282;28;45762;-80
2022/05/27 05:05:11;;;;;;;;;1.50;1.00;;;;;15.38;62.19;101778.28;5010516;28;45749;-81
2022/05/27 05:07:40;;;;;;;;;3.25;3.25;;;;;15.31;62.12;101769.09;5022978;28;45757;-79
2022/05/27 05:10:08;;;;;;;;;4.25;3.25;;;;;15.41;62.39;101770.97;5032659;28;45612;-80
2022/05/27 05:12:33;;;;;;;;;5.00;4.00;;;;;15.47;62.06;101790.81;5040615;28;47073;-79
2022/05/27 05:14:59;;;;;;;;;3.75;3.75;;;;;15.42;62.47;101782.38;5043105;28;45785;-80
2022/05/27 05:17:24;;;;;;;;;7.25;5.00;;;;;15.46;62.35;101789.13;5032299;28;45939;-80
2022/05/27 05:19:53;;;;;;;;;3.50;3.00;;;;;15.37;62.39;101773.94;5050469;28;45935;-80
2022/05/27 05:22:20;;;;;;;;;4.00;3.00;;;;;15.44;62.43;101788.38;5050563;28;46371;-80
2022/05/27 05:24:46;;;;;;;;;5.00;4.50;;;;;15.43;62.81;101797.28;5050390;28;46164;-79
2022/05/27 05:27:11;;;;;;;;;5.75;5.00;;;;;15.39;62.86;101799.28;5049510;28;45610;-80
2022/05/27 05:29:37;;;;;;;;;6.00;6.00;;;;;15.33;62.75;101781.22;5050327;28;45626;-80
2022/05/27 05:32:04;;;;;;;;;8.00;6.75;;;;;15.33;63.13;101790.97;5050471;28;45932;-80
2022/05/27 05:34:30;;;;;;;;;8.25;6.75;;;;;15.34;63.41;101788.19;5051724;28;46096;-80
2022/05/27 05:36:56;;;;;;;;;10.00;5.75;;;;;15.26;63.14;101768.59;5052386;28;45618;-80
2022/05/27 05:39:23;;;;;;;;;7.00;6.00;;;;;15.33;63.35;101778.59;5050873;28;45789;-81
2022/05/27 05:41:58;;;;;;;;;7.00;6.25;;;;;15.36;63.25;101783.66;5050441;28;46209;-80
2022/05/27 05:44:24;;;;;;;;;13.00;8.25;;;;;15.30;63.17;101778.81;5049846;28;45791;-79
2022/05/27 05:46:49;;;;;;;;;8.25;7.25;;;;;15.36;63.33;101788.94;5050431;28;45808;-80
2022/05/27 05:49:15;;;;;;;;;15.00;11.00;;;;;15.33;63.26;101796.25;5048588;28;46017;-81
2022/05/27 05:51:40;;;;;;;;;13.75;13.25;;;;;15.29;63.58;101779.78;5049803;28;46628;-80
2022/05/27 05:54:06;;;;;;;;;12.00;11.50;;;;;15.35;63.64;101786.41;5049872;28;45705;-80
2022/05/27 05:56:33;;;;;;;;;12.25;11.25;;;;;15.26;63.35;101773.88;5052398;28;45609;-79
2022/05/27 05:58:59;;;;;;;;;14.00;12.25;;;;;15.32;63.55;101776.09;5049384;28;45904;-79
2022/05/27 06:01:24;;;;;;;;;9.50;9.25;;;;;15.32;63.41;101776.09;5028820;28;47343;-80
2022/05/27 06:03:50;;;;;;;;;10.00;8.50;;;;;15.40;64.05;101789.56;5049518;28;45670;-80
2022/05/27 06:06:15;;;;;;;;;12.75;9.25;;;;;15.40;63.69;101794.84;5050188;28;46333;-80
2022/05/27 06:08:40;;;;;;;;;6.25;5.75;;;;;15.38;63.93;101788.84;5035082;28;45862;-79
2022/05/27 06:11:08;;;;;;;;;6.00;4.50;;;;;15.43;63.76;101795.47;5037826;28;46421;-80
2022/05/27 06:13:36;;;;;;;;;4.50;4.50;;;;;15.35;64.23;101786.41;5048314;28;46597;-79
2022/05/27 06:16:04;;;;;;;;;5.00;4.00;;;;;15.36;64.14;101802.16;5049959;28;45852;-80
2022/05/27 06:18:30;;;;;;;;;2.75;2.75;;;;;15.25;64.35;101777.47;5032462;28;45841;-80
2022/05/27 06:20:55;;;;;;;;;3.00;2.75;;;;;15.25;64.46;101780.09;5049452;28;45942;-79
2022/05/27 06:23:22;;;;;;;;;3.00;2.75;;;;;15.26;64.15;101780.00;5049636;28;46366;-79
2022/05/27 06:25:54;;;;;;;;;3.00;2.50;;;;;15.20;64.75;101787.50;5038412;28;45696;-79
2022/05/27 06:36:31;;;;;;;;;3.00;3.00;;;;;15.27;65.15;101801.97;5051906;28;45739;-79
2022/05/27 06:38:57;;;;;;;;;3.00;2.00;;;;;15.25;64.99;101799.44;5052826;28;46111;-79
2022/05/27 06:41:22;;;;;;;;;4.25;3.50;;;;;15.24;65.24;101797.75;5033504;28;47335;-79
2022/05/27 06:43:48;;;;;;;;;4.00;4.00;;;;;15.30;65.38;101802.59;5043517;28;45654;-79
2022/05/27 06:46:13;;;;;;;;;3.00;3.00;;;;;15.34;65.20;101808.47;5044282;28;45673;-80
2022/05/27 06:48:39;;;;;;;;;2.50;2.50;;;;;15.20;65.10;101785.72;5052256;28;45960;-80
2022/05/27 06:51:05;;;;;;;;;4.50;2.50;;;;;15.36;65.29;101802.16;5033345;28;47375;-80
2022/05/27 06:53:31;;;;;;;;;3.75;3.25;;;;;15.28;65.54;101782.50;5052712;28;46169;-79
2022/05/27 06:55:56;;;;;;;;;5.50;5.50;;;;;15.36;65.02;101806.59;5056552;28;46136;-81
2022/05/27 06:58:22;;;;;;;;;5.50;5.25;;;;;15.36;65.11;101810.06;5051800;28;45774;-78
2022/05/27 07:00:48;;;;;;;;;5.00;4.75;;;;;15.21;65.12;101797.13;5051914;28;45685;-80
2022/05/27 07:03:13;;;;;;;;;9.75;6.00;;;;;15.19;65.63;101791.94;5051576;28;46208;-77
2022/05/27 07:05:39;;;;;;;;;6.75;6.00;;;;;15.32;65.24;101805.13;5051899;28;45786;-80
2022/05/27 07:08:05;;;;;;;;;7.00;6.00;;;;;15.33;65.31;101809.47;5052471;28;46244;-79
2022/05/27 07:10:31;;;;;;;;;7.75;6.25;;;;;15.34;65.25;101805.84;5051406;28;46493;-79
2022/05/27 07:12:59;;;;;;;;;7.75;7.00;;;;;15.32;65.67;101789.28;5052046;28;45921;-79
2022/05/27 07:15:25;;;;;;;;;11.75;11.00;;;;;15.35;65.21;101807.53;5051310;28;45743;-80
2022/05/27 07:17:51;;;;;;;;;8.00;7.00;;;;;15.38;65.47;101812.63;5052080;28;45723;-79
2022/05/27 07:20:16;;;;;;;;;12.25;9.75;;;;;15.31;65.37;101792.88;5051255;28;45643;-80
2022/05/27 07:22:43;;;;;;;;;12.00;8.75;;;;;15.44;65.36;101801.56;5034127;28;46299;-79
2022/05/27 07:25:11;;;;;;;;;9.50;8.25;;;;;15.49;65.44;101810.84;5033586;28;45801;-79
2022/05/27 07:27:37;;;;;;;;;10.50;10.00;;;;;15.48;65.36;101793.34;5053582;28;45719;-80
2022/05/27 07:30:03;;;;;;;;;15.75;12.50;;;;;15.57;65.22;101802.41;5029539;28;48596;-80
2022/05/27 07:32:32;;;;;;;;;8.00;8.00;;;;;15.51;65.02;101779.94;5049542;28;46251;-80
2022/05/27 07:34:58;;;;;;;;;11.50;10.25;;;;;15.70;64.88;101797.09;5039056;28;45839;-80
2022/05/27 07:37:23;;;;;;;;;12.00;8.25;;;;;15.75;65.15;101794.97;5051004;28;45882;-80
2022/05/27 07:39:49;;;;;;;;;8.75;6.50;;;;;15.87;64.31;101812.56;5051800;28;45762;-81
2022/05/27 07:42:14;;;;;;;;;8.25;7.00;;;;;15.83;64.52;101788.13;5047031;28;46355;-81
2022/05/27 07:44:40;;;;;;;;;8.00;7.00;;;;;15.93;64.14;101799.69;5051820;28;45694;-80
2022/05/27 07:47:06;;;;;;;;;9.25;8.00;;;;;16.05;64.53;101800.59;5051649;28;45749;-81
2022/05/27 07:49:32;;;;;;;;;6.50;6.50;;;;;16.19;64.05;101803.06;5045673;28;46293;-81
2022/05/27 07:51:58;;;;;;;;;8.25;7.00;;;;;16.20;63.80;101788.00;5033240;28;48191;-81
2022/05/27 07:54:23;;;;;;;;;9.50;7.50;;;;;16.30;63.62;101789.03;5016195;28;45775;-78
2022/05/27 07:56:49;;;;;;;;;8.00;6.75;;;;;16.29;63.61;101782.91;5063554;28;45727;-80
2022/05/27 07:59:14;;;;;;;;;9.00;7.50;;;;;16.32;63.49;101782.66;5033363;28;47559;-80
2022/05/27 08:01:40;;;;;;;;;6.00;5.25;;;;;16.48;63.28;101799.97;5051116;28;45688;-80
2022/05/27 08:04:06;;;;;;;;;8.00;7.25;;;;;16.51;63.32;101803.25;5057938;28;45628;-80
2022/05/27 08:06:32;;;;;;;;;9.25;6.50;;;;;16.53;63.37;101797.81;5054615;28;45902;-80
2022/05/27 08:08:58;;;;;;;;;6.00;4.50;;;;;16.49;63.21;101777.88;5051390;28;46656;-81
2022/05/27 08:11:24;;;;;;;;;5.75;4.75;;;;;16.60;62.92;101799.06;5050541;28;46179;-81
2022/05/27 08:13:49;;;;;;;;;6.25;5.25;;;;;16.61;63.24;101795.47;5051653;28;46101;-80
2022/05/27 08:16:15;;;;;;;;;5.75;5.00;;;;;16.61;63.07;101806.06;5035249;28;45878;-80
2022/05/27 08:18:42;;;;;;;;;5.50;5.00;;;;;16.64;62.89;101800.50;5051324;28;45732;-80
2022/05/27 08:21:07;;;;;;;;;5.00;4.75;;;;;16.62;63.17;101798.00;5032994;28;48527;-80
2022/05/27 08:23:32;;;;;;;;;4.00;4.00;;;;;16.73;63.21;101811.22;5051071;28;45911;-80
2022/05/27 08:25:58;;;;;;;;;4.00;4.00;;;;;16.76;63.04;101800.41;5033350;28;45693;-79
2022/05/27 08:28:24;;;;;;;;;6.00;5.50;;;;;16.73;63.03;101789.25;5051006;28;45772;-80
2022/05/27 08:30:51;;;;;;;;;4.75;4.00;;;;;16.71;63.01;101789.34;5050759;28;45800;-80
2022/05/27 08:33:17;;;;;;;;;6.00;5.00;;;;;16.82;62.96;101804.38;5050902;28;46193;-78
2022/05/27 08:38:31;;;;;;;;;5.00;4.00;;;;;16.80;63.16;101803.66;5050392;28;45991;-79
2022/05/27 08:41:42;;;;;;;;;6.00;4.50;;;;;16.83;63.01;101799.94;5049747;28;45764;-80
2022/05/27 08:44:34;;;;;;;;;4.75;4.75;;;;;16.72;63.59;101788.38;5003485;28;45896;-80
2022/05/27 08:47:15;;;;;;;;;4.50;4.50;;;;;16.82;63.31;101804.38;5008820;28;46008;-80
2022/05/27 08:49:46;;;;;;;;;4.50;4.50;;;;;16.74;63.48;101801.47;5007272;28;45905;-80
2022/05/27 08:52:19;;;;;;;;;5.00;4.00;;;;;16.78;63.66;101810.91;5008334;28;46509;-80
2022/05/27 09:01:08;;;;;;;;;4.75;3.75;;;;;16.75;63.98;101803.19;4949060;28;46018;-78
2022/05/27 09:03:41;;;;;;;;;5.00;5.00;;;;;16.76;63.74;101799.56;4950784;28;46262;-80
2022/05/27 09:06:07;;;;;;;;;4.00;4.00;;;;;16.82;64.01;101803.53;4949596;28;45862;-80
2022/05/27 09:08:32;;;;;;;;;5.00;4.00;;;;;16.89;63.79;101812.69;4952483;28;45938;-79
2022/05/27 09:11:02;;;;;;;;;4.00;4.00;;;;;16.84;63.65;101799.00;4942406;28;47329;-80
2022/05/27 09:13:36;;;;;;;;;3.50;3.50;;;;;16.85;64.11;101814.72;4957798;28;46231;-80
2022/05/27 09:16:12;;;;;;;;;5.50;3.50;;;;;16.93;64.17;101812.34;4960878;28;45997;-80
2022/05/27 09:18:48;;;;;;;;;2.25;2.00;;;;;16.94;64.67;101823.78;4949267;28;45733;-80
2022/05/27 09:21:51;;;;;;;;;4.00;4.00;;;;;16.96;63.98;101808.59;4958575;28;46761;-80
2022/05/27 09:24:39;;;;;;;;;3.00;3.00;;;;;16.94;64.38;101807.88;4949091;28;47006;-79
2022/05/27 09:27:36;;;;;;;;;4.25;4.00;;;;;16.95;64.01;101806.94;4965912;28;45950;-79
2022/05/27 09:30:08;;;;;;;;;4.75;4.00;;;;;16.95;64.22;101809.56;4954784;28;45877;-79
2022/05/27 09:32:54;;;;;;;;;6.75;4.25;;;;;16.93;64.40;101801.75;4968047;28;45808;-80
2022/05/27 09:35:26;;;;;;;;;3.75;3.00;;;;;16.96;64.64;101803.28;5042358;28;45601;-80
2022/05/27 09:37:54;;;;;;;;;4.00;3.25;;;;;16.98;64.48;101809.31;5045007;28;45931;-80
2022/05/27 09:40:31;;;;;;;;;6.00;5.00;;;;;16.98;64.18;101802.22;5052961;28;45787;-78
2022/05/27 09:43:30;;;;;;;;;4.50;3.00;;;;;17.00;64.69;101799.47;5052138;28;46842;-80
2022/05/27 09:46:00;;;;;;;;;4.00;3.75;;;;;17.02;64.44;101808.09;4954079;28;48227;-80
2022/05/27 09:48:26;;;;;;;;;3.00;3.00;;;;;17.01;64.33;101793.19;4970110;28;46131;-80
2022/05/27 09:50:52;;;;;;;;;3.50;3.25;;;;;17.08;64.03;101804.97;4956062;28;45814;-80
2022/05/27 09:53:25;;;;;;;;;3.00;3.00;;;;;17.14;64.42;101802.69;4974193;28;45766;-80
2022/05/27 09:56:06;;;;;;;;;5.00;5.00;;;;;17.17;64.30;101805.09;4974107;28;45724;-80
2022/05/27 09:58:35;;;;;;;;;3.00;3.00;;;;;17.18;64.90;101812.06;4974198;28;45914;-81
2022/05/27 10:01:19;;;;;;;;;3.25;3.00;;;;;17.25;65.08;101811.59;4975103;28;45826;-80
2022/05/27 10:03:45;;;;;;;;;3.50;3.50;;;;;17.26;64.96;101819.41;4977417;28;45936;-81
2022/05/27 10:06:17;;;;;;;;;5.00;3.00;;;;;17.30;64.83;101817.34;4977448;28;45641;-80
2022/05/27 10:08:50;;;;;;;;;3.00;2.25;;;;;17.31;64.64;101811.94;4977135;28;46092;-79
2022/05/27 10:11:32;;;;;;;;;3.00;3.00;;;;;17.31;64.81;101795.22;4973286;28;46018;-79
2022/05/27 10:14:06;;;;;;;;;2.25;2.25;;;;;17.39;64.29;101806.00;4978356;28;45819;-79
2022/05/27 10:16:33;;;;;;;;;4.25;4.00;;;;;17.39;64.36;101792.75;4978071;28;46433;-78
2022/05/27 10:19:25;;;;;;;;;3.75;3.00;;;;;17.49;64.30;101791.09;4977918;28;45800;-80
2022/05/27 10:21:53;;;;;;;;;2.75;2.75;;;;;17.58;64.27;101800.94;4987177;28;46748;-80
2022/05/27 10:24:24;;;;;;;;;4.75;4.00;;;;;17.65;63.68;101780.94;5041678;28;47723;-80
2022/05/27 10:27:05;;;;;;;;;3.00;3.00;;;;;17.76;63.92;101791.47;5043888;28;46428;-79
2022/05/27 10:29:31;;;;;;;;;4.00;3.25;;;;;17.82;63.70;101780.38;5045173;28;45697;-80
2022/05/27 10:31:59;;;;;;;;;2.00;2.00;;;;;17.82;63.77;101758.31;5059517;28;45609;-77
2022/05/27 10:34:46;;;;;;;;;5.75;4.50;;;;;18.02;63.08;101778.75;5045618;28;46813;-78
2022/05/27 10:37:37;;;;;;;;;4.00;3.00;;;;;18.11;62.96;101780.59;5059688;28;46086;-79
2022/05/27 10:40:20;;;;;;;;;4.00;2.50;;;;;18.18;62.34;101788.91;5040082;28;45584;-80
2022/05/27 10:43:13;;;;;;;;;3.25;3.25;;;;;18.26;62.40;101795.22;5049928;28;45752;-80
2022/05/27 10:45:43;;;;;;;;;3.50;3.00;;;;;18.34;61.96;101800.75;5046049;28;46877;-80
2022/05/27 10:48:09;;;;;;;;;3.00;3.00;;;;;18.40;61.87;101791.41;5041287;28;46702;-80
2022/05/27 10:50:46;;;;;;;;;3.00;3.00;;;;;18.43;61.74;101788.50;5058089;28;45639;-79
2022/05/27 10:53:38;;;;;;;;;3.50;3.00;;;;;18.42;61.82;101777.03;5059876;28;46146;-78
2022/05/27 10:56:25;;;;;;;;;5.00;4.00;;;;;18.51;62.02;101783.38;5056760;28;45720;-80
2022/05/27 11:02:23;;;;;;;;;4.00;4.00;;;;;18.54;61.53;101777.84;5051198;28;45768;-80
2022/05/27 11:05:14;;;;;;;;;3.00;3.00;;;;;18.61;61.11;101773.69;5059034;28;45647;-80
2022/05/27 11:08:01;;;;;;;;;3.00;3.00;;;;;18.67;61.39;101783.78;5048265;28;45792;-80
2022/05/27 11:11:01;;;;;;;;;4.00;3.00;;;;;18.68;61.38;101776.63;5058354;28;45577;-80
2022/05/27 11:17:01;;;;;;;;;3.75;3.75;;;;;18.74;61.46;101787.56;5037599;28;45782;-80
2022/05/27 11:19:47;;;;;;;;;4.00;3.00;;;;;18.72;61.13;101776.25;5046460;28;46548;-79
2022/05/27 11:22:35;;;;;;;;;3.50;3.00;;;;;18.76;60.66;101768.84;5040207;28;45966;-79
2022/05/27 11:25:13;;;;;;;;;3.00;2.75;;;;;18.87;60.31;101787.34;5050576;28;45681;-79
2022/05/27 11:27:54;;;;;;;;;2.75;2.75;;;;;18.89;60.32;101781.91;5054201;28;45643;-80
2022/05/27 11:30:20;;;;;;;;;3.25;3.00;;;;;18.91;60.62;101785.25;5053321;28;46235;-80
2022/05/27 11:33:01;;;;;;;;;3.00;3.00;;;;;18.95;60.48;101776.06;5045274;28;47251;-80
2022/05/27 11:36:09;;;;;;;;;4.00;3.00;;;;;18.98;60.03;101778.44;5058425;28;45646;-79
2022/05/27 11:38:47;;;;;;;;;4.00;4.00;;;;;19.00;59.92;101779.16;4978373;28;45753;-79
2022/05/27 11:41:19;;;;;;;;;4.00;3.00;;;;;19.04;60.28;101780.56;4995271;28;46005;-80
2022/05/27 11:44:00;;;;;;;;;4.00;4.00;;;;;19.05;60.18;101766.31;4983584;28;46227;-80
2022/05/27 11:46:28;;;;;;;;;4.00;3.50;;;;;19.12;60.04;101770.09;4976634;28;45722;-79
2022/05/27 11:49:28;;;;;;;;;4.00;4.00;;;;;19.17;60.02;101768.72;4975664;28;45735;-79
2022/05/27 11:52:02;;;;;;;;;4.50;4.00;;;;;19.21;60.01;101769.28;4976121;28;45702;-80
2022/05/27 11:55:08;;;;;;;;;3.00;2.75;;;;;19.23;59.81;101762.00;4992724;28;47644;-79
2022/05/27 11:58:11;;;;;;;;;3.50;3.00;;;;;19.25;59.46;101765.38;4975863;28;45952;-80
2022/05/27 12:00:43;;;;;;;;;4.00;3.00;;;;;19.21;59.77;101756.84;4974100;28;45615;-80
2022/05/27 12:03:43;;;;;;;;;3.75;3.00;;;;;19.24;59.30;101761.03;4982584;28;47117;-81
2022/05/27 12:06:16;;;;;;;;;3.25;3.00;;;;;19.20;59.74;101760.47;4966978;28;46001;-79
2022/05/27 12:08:50;;;;;;;;;4.00;4.00;;;;;19.23;59.72;101760.19;4975570;28;46128;-79
2022/05/27 12:11:24;;;;;;;;;4.25;3.75;;;;;19.22;59.58;101758.50;4973797;28;45802;-78
2022/05/27 12:13:56;;;;;;;;;3.50;2.75;;;;;19.24;59.47;101751.25;4978142;28;45812;-78